Time;durP1;ratioP1;P1;durP2;ratioP2;P2;SDS_P1;SDS_P2;PMS_P1;PMS_P2;Temp;Humidity;BMP_temperature;BMP_pressure;BME280_temperature;BME280_humidity;BME280_pressure;Samples;Min_cycle;Max_cycle;Signal;HPM_P1;HPM_P2
2022/06/05 00:01:53;;;;;;;0.63;0.63;;;;;;;14.30;78.60;100880.44;5073597;28;20171;-73
2022/06/05 00:04:33;;;;;;;0.00;0.00;;;;;;;14.41;78.32;100880.91;5073591;28;20159;-73
2022/06/05 00:07:13;;;;;;;0.00;0.00;;;;;;;14.31;78.23;100875.75;5073554;28;20211;-73
2022/06/05 00:10:19;;;;;;;0.00;0.00;;;;;;;14.28;78.42;100876.41;5073459;28;20169;-73
2022/06/05 00:12:53;;;;;;;0.00;0.00;;;;;;;14.22;78.83;100864.78;5073555;28;20181;-73
2022/06/05 00:15:19;;;;;;;0.00;0.00;;;;;;;14.23;78.84;100873.84;5073397;28;20173;-73
2022/06/05 00:17:44;;;;;;;0.00;0.00;;;;;;;14.15;78.94;100869.94;5073007;28;20171;-72
2022/06/05 00:20:11;;;;;;;0.07;0.07;;;;;;;14.00;79.16;100860.25;5073190;28;20197;-72
2022/06/05 00:22:39;;;;;;;0.00;0.00;;;;;;;13.94;80.29;100850.59;5072960;28;20175;-72
2022/06/05 00:25:06;;;;;;;0.00;0.00;;;;;;;13.78;80.30;100859.63;5072095;28;20163;-73
2022/06/05 00:27:46;;;;;;;0.00;0.00;;;;;;;13.45;81.63;100856.50;5071590;28;20206;-73
2022/06/05 00:30:17;;;;;;;0.10;0.10;;;;;;;13.30;83.18;100838.56;5073025;28;20158;-72
2022/06/05 00:33:08;;;;;;;0.00;0.00;;;;;;;13.18;83.58;100835.63;5072808;28;20232;-73
2022/06/05 00:35:45;;;;;;;0.30;0.30;;;;;;;13.14;84.41;100832.69;5072794;28;20866;-73
2022/06/05 00:38:43;;;;;;;0.00;0.00;;;;;;;13.14;84.79;100843.66;5072294;28;20162;-73
2022/06/05 00:41:36;;;;;;;0.00;0.00;;;;;;;13.07;84.91;100833.16;5071809;28;20218;-72
2022/06/05 00:44:04;;;;;;;0.00;0.00;;;;;;;13.08;85.17;100829.28;5072674;28;20186;-72
2022/06/05 00:46:30;;;;;;;0.00;0.00;;;;;;;13.13;86.09;100825.59;5072479;28;20183;-73
2022/06/05 00:48:56;;;;;;;0.00;0.00;;;;;;;13.29;85.49;100824.03;5072142;28;20217;-72
2022/06/05 00:51:21;;;;;;;0.00;0.00;;;;;;;13.34;85.39;100825.84;5072253;28;20668;-72
2022/06/05 00:53:47;;;;;;;0.00;0.00;;;;;;;13.48;84.80;100823.75;5072919;28;20190;-72
2022/06/05 00:56:12;;;;;;;0.00;0.00;;;;;;;13.50;84.41;100824.25;5072330;28;20174;-74
2022/06/05 00:58:38;;;;;;;0.00;0.00;;;;;;;13.53;84.04;100815.34;5072232;28;20216;-72
2022/06/05 01:01:03;;;;;;;0.00;0.00;;;;;;;13.45;84.74;100820.81;5072390;28;20287;-72
2022/06/05 01:03:30;;;;;;;0.00;0.00;;;;;;;13.47;84.87;100819.41;5072263;28;20179;-73
2022/06/05 01:05:55;;;;;;;0.00;0.00;;;;;;;13.42;84.84;100814.03;5072258;28;20773;-72
2022/06/05 01:08:21;;;;;;;0.00;0.00;;;;;;;13.30;85.95;100811.94;5072023;28;20265;-72
2022/06/05 01:11:23;;;;;;;0.00;0.00;;;;;;;13.32;85.81;100804.22;5071939;28;20673;-72
2022/06/05 01:14:03;;;;;;;0.00;0.00;;;;;;;13.34;86.11;100807.44;5071981;28;20739;-72
2022/06/05 01:16:41;;;;;;;0.00;0.00;;;;;;;13.28;86.11;100802.41;5072034;28;20246;-73
2022/06/05 01:19:15;;;;;;;0.00;0.00;;;;;;;13.24;86.30;100809.66;5071840;28;20170;-73
2022/06/05 01:22:18;;;;;;;0.57;0.40;;;;;;;13.20;86.75;100808.72;5071835;28;20526;-74
2022/06/05 01:24:49;;;;;;;0.07;0.07;;;;;;;13.16;87.27;100802.19;5070709;28;20239;-73
2022/06/05 01:27:19;;;;;;;0.00;0.00;;;;;;;13.15;87.41;100797.81;5071089;28;20181;-73
2022/06/05 01:29:51;;;;;;;0.97;0.97;;;;;;;13.09;88.17;100788.97;5071198;28;20175;-73
2022/06/05 01:32:23;;;;;;;0.00;0.00;;;;;;;13.04;87.73;100798.16;5071327;28;20228;-73
2022/06/05 01:34:56;;;;;;;0.87;0.87;;;;;;;13.06;88.45;100804.13;5070912;28;20673;-72
2022/06/05 01:37:33;;;;;;;0.67;0.67;;;;;;;13.05;88.38;100801.69;5070507;28;20216;-73
2022/06/05 01:40:18;;;;;;;0.40;0.40;;;;;;;13.01;89.11;100798.75;5071032;28;20725;-72
2022/06/05 01:42:49;;;;;;;0.63;0.63;;;;;;;12.92;89.36;100795.22;5071480;28;20178;-73
2022/06/05 01:45:23;;;;;;;0.00;0.00;;;;;;;12.84;89.49;100801.47;5071245;28;20178;-73
2022/06/05 01:47:53;;;;;;;0.00;0.00;;;;;;;12.79;90.47;100801.63;5067603;28;20186;-72
2022/06/05 01:50:38;;;;;;;0.03;0.03;;;;;;;12.86;90.62;100803.88;5071455;28;20289;-72
2022/06/05 01:53:21;;;;;;;0.00;0.00;;;;;;;12.79;90.79;100793.41;5071659;28;20178;-73
2022/06/05 01:56:01;;;;;;;0.10;0.10;;;;;;;12.48;92.05;100794.25;5071533;28;20223;-72
2022/06/05 01:58:33;;;;;;;0.00;0.00;;;;;;;12.31;93.82;100788.69;5070942;28;20523;-73
2022/06/05 02:01:03;;;;;;;0.00;0.00;;;;;;;12.30;94.04;100786.25;5071091;28;20202;-72
2022/06/05 02:03:37;;;;;;;0.00;0.00;;;;;;;12.34;94.05;100782.56;5071334;28;20163;-73
2022/06/05 02:06:08;;;;;;;0.00;0.00;;;;;;;12.50;93.49;100785.69;5071428;28;20228;-72
2022/06/05 02:08:38;;;;;;;0.77;0.47;;;;;;;12.51;93.04;100793.59;5071082;28;20166;-73
2022/06/05 02:11:14;;;;;;;0.00;0.00;;;;;;;12.34;93.84;100774.34;5071219;28;20170;-72
2022/06/05 02:13:39;;;;;;;0.10;0.10;;;;;;;12.21;94.79;100773.31;5071480;28;20189;-73
2022/06/05 02:16:05;;;;;;;0.00;0.00;;;;;;;12.22;95.22;100776.84;5071281;28;20627;-72
2022/06/05 02:18:31;;;;;;;0.00;0.00;;;;;;;12.26;94.81;100769.63;5070714;28;20235;-73
2022/06/05 02:20:57;;;;;;;0.00;0.00;;;;;;;12.18;94.95;100762.19;5071008;28;20229;-72
2022/06/05 02:23:27;;;;;;;0.00;0.00;;;;;;;12.05;95.90;100765.81;5071055;28;20590;-73
2022/06/05 02:25:53;;;;;;;0.20;0.20;;;;;;;11.84;97.13;100758.09;5070637;28;20212;-72
2022/06/05 02:28:21;;;;;;;0.00;0.00;;;;;;;11.84;97.96;100766.31;5070655;28;20216;-73
2022/06/05 02:31:00;;;;;;;0.00;0.00;;;;;;;12.03;97.44;100766.13;5070883;28;20198;-74
2022/06/05 02:33:33;;;;;;;0.00;0.00;;;;;;;11.98;97.25;100768.16;5070702;28;20216;-73
2022/06/05 02:36:10;;;;;;;0.00;0.00;;;;;;;11.95;97.25;100758.66;5070761;28;20173;-73
2022/06/05 02:39:11;;;;;;;0.00;0.00;;;;;;;11.82;98.22;100763.06;5070122;28;20158;-73
2022/06/05 02:41:44;;;;;;;0.00;0.00;;;;;;;11.79;97.81;100760.97;5052791;28;20257;-73
2022/06/05 02:44:31;;;;;;;0.00;0.00;;;;;;;12.07;97.70;100760.81;5070536;28;20631;-74
2022/06/05 02:47:02;;;;;;;0.00;0.00;;;;;;;12.19;96.28;100759.13;5071066;28;20567;-73
2022/06/05 02:49:47;;;;;;;0.00;0.00;;;;;;;12.18;95.65;100762.19;5072519;28;20185;-74
2022/06/05 02:52:13;;;;;;;0.00;0.00;;;;;;;12.25;95.42;100761.72;5074656;28;20178;-74
2022/06/05 02:54:47;;;;;;;0.00;0.00;;;;;;;12.20;94.67;100765.41;5074538;28;20175;-74
2022/06/05 02:57:13;;;;;;;0.00;0.00;;;;;;;12.17;95.87;100758.63;5074583;28;20190;-73
2022/06/05 02:59:39;;;;;;;0.00;0.00;;;;;;;12.03;95.71;100755.16;5074744;28;20230;-73
2022/06/05 03:04:49;;;;;;;0.00;0.00;;;;;;;12.21;96.43;100758.81;5074371;28;20247;-73
2022/06/05 03:07:14;;;;;;;0.53;0.53;;;;;;;12.28;95.31;100769.31;5073630;28;20639;-74
2022/06/05 03:09:40;;;;;;;0.00;0.00;;;;;;;12.34;95.13;100782.56;5073740;28;20174;-74
2022/06/05 03:12:05;;;;;;;0.00;0.00;;;;;;;12.23;95.36;100766.72;5073964;28;20179;-72
2022/06/05 03:14:30;;;;;;;0.10;0.10;;;;;;;11.87;96.46;100752.00;5074343;28;20177;-74
2022/06/05 03:16:56;;;;;;;0.20;0.20;;;;;;;11.68;98.02;100761.50;5073667;28;20171;-74
2022/06/05 03:19:22;;;;;;;0.00;0.00;;;;;;;11.81;98.78;100755.97;5073527;28;20201;-74
2022/06/05 03:21:47;;;;;;;0.30;0.30;;;;;;;11.93;98.41;100760.91;5073952;28;20190;-74
2022/06/05 03:24:14;;;;;;;0.00;0.00;;;;;;;11.86;98.76;100749.56;5072710;28;20266;-74
2022/06/05 03:26:39;;;;;;;0.00;0.00;;;;;;;11.84;98.33;100752.63;5073531;28;20181;-74
2022/06/05 03:29:07;;;;;;;0.00;0.00;;;;;;;11.90;98.99;100743.16;5073360;28;20175;-73
2022/06/05 03:31:33;;;;;;;0.00;0.00;;;;;;;11.70;98.89;100735.41;5073649;28;20181;-73
2022/06/05 03:33:58;;;;;;;0.00;0.00;;;;;;;11.50;100.00;100734.00;5073461;28;20167;-73
2022/06/05 03:36:24;;;;;;;0.10;0.10;;;;;;;11.41;100.00;100733.09;5073897;28;20705;-74
2022/06/05 03:38:49;;;;;;;0.00;0.00;;;;;;;11.32;100.00;100733.06;5073341;28;20567;-73
2022/06/05 03:41:15;;;;;;;0.00;0.00;;;;;;;11.28;100.00;100734.81;5073536;28;20201;-74
2022/06/05 03:43:42;;;;;;;0.10;0.10;;;;;;;11.30;100.00;100739.97;5073561;28;20170;-73
2022/06/05 03:46:10;;;;;;;0.00;0.00;;;;;;;11.24;100.00;100739.25;5073927;28;20178;-72
2022/06/05 03:48:36;;;;;;;0.00;0.00;;;;;;;11.29;100.00;100746.56;5073123;28;20174;-73
2022/06/05 03:51:13;;;;;;;0.07;0.07;;;;;;;11.25;100.00;100751.81;5073429;28;20263;-72
2022/06/05 03:53:39;;;;;;;0.00;0.00;;;;;;;11.21;100.00;100739.88;5073448;28;20216;-74
2022/06/05 03:56:15;;;;;;;0.00;0.00;;;;;;;11.39;100.00;100743.56;5073364;28;20174;-73
2022/06/05 03:58:41;;;;;;;0.00;0.00;;;;;;;11.52;100.00;100730.94;5072520;28;20175;-73
2022/06/05 04:01:08;;;;;;;0.00;0.00;;;;;;;11.54;100.00;100725.97;5072802;28;20198;-73
2022/06/05 04:03:34;;;;;;;0.00;0.00;;;;;;;11.72;100.00;100726.94;5073575;28;20229;-74
2022/06/05 04:05:59;;;;;;;0.00;0.00;;;;;;;11.91;100.00;100719.34;5073286;28;20743;-74
2022/06/05 04:08:25;;;;;;;0.00;0.00;;;;;;;11.95;100.00;100719.50;5072586;28;20167;-74
2022/06/05 04:10:50;;;;;;;0.00;0.00;;;;;;;11.94;98.12;100712.41;5073018;28;20190;-73
2022/06/05 04:13:16;;;;;;;0.00;0.00;;;;;;;11.79;98.14;100708.94;5073358;28;20171;-73
2022/06/05 04:15:41;;;;;;;0.00;0.00;;;;;;;11.81;99.32;100703.16;5073524;28;20171;-73
2022/06/05 04:18:07;;;;;;;0.00;0.00;;;;;;;11.86;99.92;100705.75;5072222;28;20535;-73
2022/06/05 04:20:33;;;;;;;0.10;0.10;;;;;;;11.82;100.00;100697.38;5073112;28;20803;-74
2022/06/05 04:22:58;;;;;;;0.07;0.07;;;;;;;11.92;100.00;100699.03;5072621;28;20187;-73
2022/06/05 04:25:24;;;;;;;0.00;0.00;;;;;;;11.98;100.00;100695.03;5071847;28;20529;-75
2022/06/05 04:27:51;;;;;;;0.00;0.00;;;;;;;11.98;100.00;100696.97;5072122;28;20170;-73
2022/06/05 04:30:16;;;;;;;0.00;0.00;;;;;;;12.03;100.00;100692.19;5072429;28;20184;-74
2022/06/05 04:32:41;;;;;;;0.00;0.00;;;;;;;12.18;99.68;100690.97;5072635;28;20257;-73
2022/06/05 04:35:07;;;;;;;0.00;0.00;;;;;;;12.28;99.51;100690.66;5072631;28;20186;-74
2022/06/05 04:37:33;;;;;;;0.40;0.23;;;;;;;12.36;98.29;100692.63;5072323;28;20166;-74
2022/06/05 04:39:58;;;;;;;0.13;0.13;;;;;;;12.47;97.64;100696.72;5072353;28;20194;-71
2022/06/05 04:42:24;;;;;;;0.00;0.00;;;;;;;12.59;96.46;100690.63;5072734;28;20221;-71
2022/06/05 04:44:49;;;;;;;0.00;0.00;;;;;;;12.71;95.70;100698.19;5072679;28;20182;-71
2022/06/05 04:47:14;;;;;;;1.03;1.03;;;;;;;12.73;95.84;100694.03;5071658;28;20174;-71
2022/06/05 04:49:40;;;;;;;0.00;0.00;;;;;;;12.80;95.11;100686.13;5071888;28;20289;-71
2022/06/05 04:52:05;;;;;;;0.03;0.03;;;;;;;12.86;95.10;100678.56;5072230;28;20629;-71
2022/06/05 04:54:30;;;;;;;0.20;0.20;;;;;;;12.93;94.72;100680.84;5072588;28;20198;-71
2022/06/05 04:56:56;;;;;;;0.00;0.00;;;;;;;13.07;94.42;100679.56;5071907;28;20544;-72
2022/06/05 04:59:21;;;;;;;0.20;0.20;;;;;;;13.21;93.61;100682.16;5071537;28;20195;-71
2022/06/05 05:01:46;;;;;;;0.20;0.03;;;;;;;13.34;93.33;100677.66;5072002;28;20176;-71
2022/06/05 05:04:14;;;;;;;2.23;2.13;;;;;;;13.45;92.19;100689.88;5072282;28;20257;-71
2022/06/05 05:06:41;;;;;;;0.00;0.00;;;;;;;13.59;92.21;100682.28;5071826;28;20174;-71
2022/06/05 05:09:07;;;;;;;0.20;0.20;;;;;;;13.79;91.65;100694.53;5068031;28;20175;-71
2022/06/05 05:11:33;;;;;;;0.33;0.33;;;;;;;13.90;91.18;100686.75;5070377;28;20634;-71
2022/06/05 05:13:59;;;;;;;0.00;0.00;;;;;;;13.95;90.50;100686.56;5071677;28;20174;-71
2022/06/05 05:16:26;;;;;;;0.10;0.10;;;;;;;14.11;89.41;100686.84;5072160;28;20178;-70
2022/06/05 05:18:53;;;;;;;0.20;0.20;;;;;;;14.18;88.18;100687.94;5072003;28;20248;-71
2022/06/05 05:21:20;;;;;;;0.13;0.10;;;;;;;14.28;87.73;100695.81;5072106;28;20198;-70
2022/06/05 05:23:46;;;;;;;0.00;0.00;;;;;;;14.42;88.09;100700.28;5072008;28;20182;-70
2022/06/05 05:26:21;;;;;;;0.00;0.00;;;;;;;14.55;87.31;100699.28;5070924;28;20647;-70
2022/06/05 05:28:47;;;;;;;0.27;0.27;;;;;;;14.59;86.52;100694.72;5071456;28;20174;-70
2022/06/05 05:31:15;;;;;;;0.30;0.30;;;;;;;14.70;86.65;100701.47;5071843;28;20214;-70
2022/06/05 05:33:41;;;;;;;0.23;0.23;;;;;;;14.76;85.36;100696.59;5071902;28;20206;-70
2022/06/05 05:36:08;;;;;;;0.23;0.23;;;;;;;14.85;85.86;100702.81;5071818;28;20209;-70
2022/06/05 05:38:34;;;;;;;0.20;0.20;;;;;;;14.98;86.19;100699.00;5071169;28;20181;-70
2022/06/05 05:43:43;;;;;;;0.10;0.10;;;;;;;15.11;85.30;100697.13;5071970;28;20696;-71
2022/06/05 05:46:10;;;;;;;0.10;0.10;;;;;;;15.14;84.26;100696.47;5071764;28;20159;-71
2022/06/05 05:48:37;;;;;;;0.63;0.63;;;;;;;15.21;83.91;100704.19;5066467;28;20175;-71
2022/06/05 05:51:02;;;;;;;1.60;1.50;;;;;;;15.22;83.12;100698.34;5071442;28;20256;-71
2022/06/05 05:53:27;;;;;;;1.43;1.33;;;;;;;15.27;82.92;100700.88;5071380;28;20266;-71
2022/06/05 05:55:53;;;;;;;1.07;1.03;;;;;;;15.34;82.98;100701.16;5071277;28;20228;-71
2022/06/05 05:58:18;;;;;;;0.00;0.00;;;;;;;15.50;83.94;100703.31;5070978;28;20170;-71
2022/06/05 06:00:43;;;;;;;0.00;0.00;;;;;;;15.54;82.79;100699.53;5071413;28;20243;-71
2022/06/05 06:03:09;;;;;;;0.13;0.13;;;;;;;15.62;83.12;100709.69;5071155;28;20236;-71
2022/06/05 06:05:34;;;;;;;0.10;0.10;;;;;;;15.79;83.13;100705.97;5071299;28;20171;-71
2022/06/05 06:07:59;;;;;;;0.00;0.00;;;;;;;15.88;82.22;100703.09;5071074;28;20205;-71
2022/06/05 06:10:25;;;;;;;3.40;1.30;;;;;;;15.93;82.25;100700.94;5071233;28;20173;-71
2022/06/05 06:12:50;;;;;;;0.03;0.03;;;;;;;16.14;81.69;100713.84;5071323;28;20662;-71
2022/06/05 06:15:15;;;;;;;0.43;0.43;;;;;;;16.16;80.07;100704.06;5071267;28;20649;-71
2022/06/05 06:17:41;;;;;;;0.50;0.50;;;;;;;16.21;80.16;100708.56;5070895;28;20174;-71
2022/06/05 06:20:07;;;;;;;1.27;1.23;;;;;;;16.33;80.29;100700.28;5071053;28;20373;-70
2022/06/05 06:22:34;;;;;;;0.90;0.90;;;;;;;16.35;79.51;100698.03;5071238;28;20192;-71
2022/06/05 06:24:59;;;;;;;0.00;0.00;;;;;;;16.55;79.16;100691.56;5069850;28;20180;-71
2022/06/05 06:27:26;;;;;;;1.30;0.87;;;;;;;16.71;78.75;100683.44;5068166;28;20170;-71
2022/06/05 06:29:52;;;;;;;0.20;0.20;;;;;;;16.76;78.49;100685.13;5068971;28;20239;-71
2022/06/05 06:32:17;;;;;;;0.73;0.73;;;;;;;16.83;77.79;100682.63;5070752;28;20579;-71
2022/06/05 06:34:42;;;;;;;0.67;0.67;;;;;;;16.80;78.05;100673.09;5070481;28;20528;-71
2022/06/05 06:37:07;;;;;;;0.37;0.37;;;;;;;17.06;78.24;100666.31;5070851;28;20175;-73
2022/06/05 06:39:33;;;;;;;0.23;0.20;;;;;;;17.05;77.74;100657.25;5070436;28;20190;-72
2022/06/05 06:41:59;;;;;;;0.43;0.43;;;;;;;17.13;77.10;100647.22;5070935;28;20198;-74
2022/06/05 06:44:25;;;;;;;1.17;1.07;;;;;;;17.31;76.75;100658.78;5070885;28;20186;-72
2022/06/05 06:46:50;;;;;;;0.63;0.63;;;;;;;17.12;76.68;100651.94;5070719;28;20206;-72
2022/06/05 06:49:16;;;;;;;0.00;0.00;;;;;;;17.23;76.92;100644.78;5070515;28;20405;-73
2022/06/05 06:51:41;;;;;;;1.27;1.27;;;;;;;17.18;76.70;100641.44;5070858;28;20210;-73
2022/06/05 06:54:07;;;;;;;1.27;1.10;;;;;;;17.24;76.05;100635.34;5070606;28;20175;-73
2022/06/05 06:56:34;;;;;;;1.23;0.83;;;;;;;17.42;76.39;100648.84;5070863;28;20209;-74
2022/06/05 06:59:02;;;;;;;1.60;1.47;;;;;;;17.73;76.22;100640.63;5070209;28;20695;-74
2022/06/05 07:01:27;;;;;;;0.20;0.20;;;;;;;17.65;75.80;100643.53;5070402;28;20616;-74
2022/06/05 07:03:53;;;;;;;0.57;0.57;;;;;;;17.75;75.42;100635.56;5070555;28;20170;-73
2022/06/05 07:06:20;;;;;;;0.10;0.10;;;;;;;17.87;75.07;100634.66;5070640;28;20224;-73
2022/06/05 07:08:46;;;;;;;0.60;0.60;;;;;;;17.86;74.24;100633.06;5070244;28;20548;-73
2022/06/05 07:11:13;;;;;;;0.23;0.23;;;;;;;17.95;74.50;100627.38;5070575;28;20618;-72
2022/06/05 07:13:39;;;;;;;0.80;0.80;;;;;;;18.25;73.88;100627.72;5070647;28;20167;-72
2022/06/05 07:16:06;;;;;;;0.40;0.40;;;;;;;18.33;73.70;100619.22;5069357;28;20205;-76
2022/06/05 07:18:32;;;;;;;1.37;1.10;;;;;;;18.14;73.32;100624.69;5067308;28;20278;-73
2022/06/05 07:20:58;;;;;;;0.80;0.80;;;;;;;18.32;73.86;100627.88;5070260;28;20294;-72
2022/06/05 07:23:23;;;;;;;1.93;1.83;;;;;;;18.32;73.17;100619.56;5070262;28;20178;-72
2022/06/05 07:25:51;;;;;;;0.13;0.13;;;;;;;18.54;73.86;100624.44;5069849;28;20262;-72
2022/06/05 07:28:18;;;;;;;0.27;0.27;;;;;;;18.71;74.21;100612.19;5070118;28;20614;-72
2022/06/05 07:30:49;;;;;;;0.57;0.57;;;;;;;18.87;72.84;100615.72;5070497;28;20171;-72
2022/06/05 07:33:15;;;;;;;1.97;1.87;;;;;;;18.69;71.75;100611.75;5070398;28;20202;-73
2022/06/05 07:35:41;;;;;;;0.00;0.00;;;;;;;18.72;72.02;100602.72;5068767;28;20178;-72
2022/06/05 07:38:07;;;;;;;0.03;0.03;;;;;;;18.91;72.35;100611.03;5071052;28;20192;-72
2022/06/05 07:40:37;;;;;;;0.20;0.20;;;;;;;19.10;73.23;100610.25;5073793;28;20555;-72
2022/06/05 07:43:03;;;;;;;1.37;1.13;;;;;;;19.28;71.20;100607.84;5073896;28;20269;-72
2022/06/05 07:45:28;;;;;;;0.83;0.83;;;;;;;19.29;70.88;100609.44;5068805;28;20311;-71
2022/06/05 07:47:53;;;;;;;1.07;1.07;;;;;;;19.50;70.87;100597.94;5072212;28;20190;-71
2022/06/05 07:50:18;;;;;;;0.13;0.13;;;;;;;19.55;70.09;100597.69;5073106;28;20210;-72
2022/06/05 07:55:28;;;;;;;0.67;0.67;;;;;;;19.87;70.74;100601.81;5069409;28;20234;-71
2022/06/05 07:57:54;;;;;;;1.83;0.63;;;;;;;19.83;69.16;100594.63;5071838;28;20183;-72
2022/06/05 08:00:21;;;;;;;0.40;0.40;;;;;;;19.87;69.88;100593.50;5072653;28;20233;-71
2022/06/05 08:02:48;;;;;;;0.67;0.60;;;;;;;19.75;69.06;100596.47;5073089;28;20163;-71
2022/06/05 08:05:13;;;;;;;0.60;0.60;;;;;;;19.76;69.08;100586.97;5072773;28;20224;-71
2022/06/05 08:07:39;;;;;;;0.63;0.63;;;;;;;19.80;69.41;100584.25;5072441;28;20165;-71
2022/06/05 08:10:05;;;;;;;1.33;1.30;;;;;;;19.81;68.20;100581.09;5072265;28;20507;-71
2022/06/05 08:12:33;;;;;;;1.10;1.10;;;;;;;19.93;69.00;100577.34;5073036;28;20451;-71
2022/06/05 08:15:02;;;;;;;3.00;2.73;;;;;;;20.04;68.00;100570.00;5069257;28;20185;-71
2022/06/05 08:17:30;;;;;;;2.10;1.63;;;;;;;20.02;67.66;100560.47;5072506;28;20223;-71
2022/06/05 08:19:56;;;;;;;1.33;1.23;;;;;;;20.17;68.45;100554.75;5068033;28;20215;-72
2022/06/05 08:22:24;;;;;;;1.77;1.67;;;;;;;20.10;67.61;100542.72;5071608;28;20652;-71
2022/06/05 08:24:49;;;;;;;1.53;1.37;;;;;;;20.11;67.50;100536.84;5072783;28;20174;-71
2022/06/05 08:27:17;;;;;;;19.17;1.13;;;;;;;20.34;68.09;100531.19;5065822;28;20544;-72
2022/06/05 08:29:43;;;;;;;1.27;1.17;;;;;;;20.45;67.15;100525.84;5060968;28;20277;-71
2022/06/05 08:32:09;;;;;;;2.63;2.43;;;;;;;20.53;67.32;100529.50;5072916;28;20697;-71
2022/06/05 08:34:35;;;;;;;0.10;0.10;;;;;;;20.48;67.60;100531.44;5072217;28;20168;-71
2022/06/05 08:42:40;;;;;;;0.17;0.17;;;;;;;20.44;67.62;100535.34;5069824;28;20191;-72
2022/06/05 08:45:50;;;;;;;0.80;0.80;;;;;;;20.46;68.00;100536.56;5066171;28;20184;-72
2022/06/05 08:48:25;;;;;;;4.10;2.00;;;;;;;20.60;66.95;100537.94;5050057;28;20181;-71
2022/06/05 08:50:56;;;;;;;1.17;1.00;;;;;;;20.59;66.26;100530.78;5052117;28;20571;-71
2022/06/05 08:53:27;;;;;;;1.30;0.90;;;;;;;20.62;65.92;100538.34;5051855;28;20670;-71
2022/06/05 08:55:54;;;;;;;0.30;0.30;;;;;;;20.77;67.74;100531.78;5051820;28;20177;-71
2022/06/05 08:58:48;;;;;;;2.03;1.93;;;;;;;20.68;66.10;100534.84;5052776;28;20181;-72
2022/06/05 09:01:24;;;;;;;3.07;2.27;;;;;;;20.57;65.97;100539.47;5063584;28;20222;-71
2022/06/05 09:03:59;;;;;;;1.67;1.57;;;;;;;20.62;65.92;100535.56;5056662;28;20180;-73
2022/06/05 09:07:03;;;;;;;0.33;0.33;;;;;;;20.78;65.96;100531.41;5072018;28;20191;-72
2022/06/05 09:09:49;;;;;;;3.23;3.03;;;;;;;20.61;66.05;100537.53;5061404;28;20201;-71
2022/06/05 09:12:32;;;;;;;1.17;1.17;;;;;;;20.77;67.08;100527.03;5052039;28;20588;-71
2022/06/05 09:15:07;;;;;;;1.43;1.40;;;;;;;20.80;66.58;100523.50;5052069;28;20171;-72
2022/06/05 09:17:33;;;;;;;2.77;2.57;;;;;;;20.63;65.99;100526.84;5051386;28;20514;-71
2022/06/05 09:19:59;;;;;;;1.03;1.03;;;;;;;20.77;66.54;100506.78;5051726;28;20726;-72
2022/06/05 09:22:37;;;;;;;1.40;1.30;;;;;;;20.76;66.84;100514.34;5052045;28;20263;-72
2022/06/05 09:25:08;;;;;;;1.97;1.87;;;;;;;20.77;66.04;100504.81;5071831;28;20159;-72
2022/06/05 09:28:09;;;;;;;1.77;1.67;;;;;;;20.86;66.18;100506.50;5071580;28;20532;-71
2022/06/05 09:30:53;;;;;;;1.57;1.47;;;;;;;20.94;65.28;100510.94;5070665;28;20621;-72
2022/06/05 09:33:21;;;;;;;1.93;1.83;;;;;;;20.93;66.01;100507.38;5071734;28;20179;-72
2022/06/05 09:36:03;;;;;;;2.67;2.53;;;;;;;20.92;64.59;100507.75;5071688;28;20611;-73
2022/06/05 09:38:35;;;;;;;0.57;0.57;;;;;;;21.01;65.31;100499.94;5069768;28;20634;-72
2022/06/05 09:41:12;;;;;;;0.70;0.70;;;;;;;21.18;65.33;100488.19;5066735;28;20312;-71
2022/06/05 09:43:52;;;;;;;1.53;1.43;;;;;;;21.18;63.39;100488.19;5051386;28;20173;-72
2022/06/05 09:46:32;;;;;;;1.17;1.17;;;;;;;21.34;63.43;100493.53;5059665;28;20175;-71
2022/06/05 09:49:25;;;;;;;1.03;1.03;;;;;;;21.48;64.00;100492.88;5071192;28;20202;-72
2022/06/05 09:51:51;;;;;;;1.27;1.20;;;;;;;21.73;63.89;100471.63;5071463;28;20180;-72
2022/06/05 09:54:31;;;;;;;0.40;0.40;;;;;;;21.91;63.45;100464.19;5071319;28;20169;-72
2022/06/05 10:00:00;;;;;;;3.33;3.13;;;;;;;22.09;61.77;100455.16;5070791;28;20736;-77
2022/06/05 10:02:28;;;;;;;0.60;0.60;;;;;;;22.01;61.95;100453.53;5071278;28;20167;-71
2022/06/05 10:04:54;;;;;;;2.07;1.97;;;;;;;22.14;61.75;100440.91;5072413;28;20174;-71
2022/06/05 10:07:30;;;;;;;2.50;2.30;;;;;;;22.05;61.08;100443.19;5074152;28;20174;-72
2022/06/05 10:09:56;;;;;;;1.03;1.00;;;;;;;22.07;62.42;100440.84;5071787;28;20181;-71
2022/06/05 10:12:27;;;;;;;5.33;2.83;;;;;;;22.02;61.96;100435.63;5071021;28;20172;-72
2022/06/05 10:15:02;;;;;;;0.60;0.60;;;;;;;22.23;62.87;100428.22;5067353;28;20200;-73
2022/06/05 10:17:30;;;;;;;3.10;1.17;;;;;;;22.38;61.13;100437.41;5071197;28;20220;-73
2022/06/05 10:20:20;;;;;;;1.23;1.23;;;;;;;22.64;62.36;100441.09;5071118;28;20233;-71
2022/06/05 10:23:02;;;;;;;4.23;2.27;;;;;;;22.69;61.23;100451.84;5059787;28;20191;-72
2022/06/05 10:25:35;;;;;;;0.67;0.67;;;;;;;22.78;60.85;100453.06;5071273;28;20354;-73
2022/06/05 10:28:05;;;;;;;3.97;3.67;;;;;;;22.81;59.98;100429.19;5071027;28;20634;-72
2022/06/05 10:30:35;;;;;;;2.53;2.10;;;;;;;22.48;59.89;100422.75;5070560;28;20209;-72
2022/06/05 10:33:12;;;;;;;2.80;2.63;;;;;;;22.41;60.67;100410.78;5070905;28;20190;-72
2022/06/05 10:35:59;;;;;;;1.93;1.83;;;;;;;22.32;61.03;100400.03;5070896;28;20314;-72
2022/06/05 10:38:46;;;;;;;1.90;1.80;;;;;;;22.26;61.04;100401.56;5070745;28;20162;-71
2022/06/05 10:41:21;;;;;;;0.97;0.97;;;;;;;22.36;60.81;100411.16;5070820;28;20715;-72
2022/06/05 10:44:10;;;;;;;1.73;1.63;;;;;;;22.24;61.38;100404.75;5071247;28;20238;-73
2022/06/05 10:46:39;;;;;;;1.00;0.87;;;;;;;22.28;61.25;100399.22;5050190;28;20187;-72
2022/06/05 10:49:23;;;;;;;1.20;1.20;;;;;;;22.22;61.16;100384.88;5070655;28;20185;-72
2022/06/05 10:52:35;;;;;;;0.97;0.83;;;;;;;22.36;61.30;100383.31;5050950;28;20175;-72
2022/06/05 10:55:34;;;;;;;1.10;1.10;;;;;;;22.33;61.69;100372.97;5045087;28;20194;-72
2022/06/05 10:58:18;;;;;;;2.10;2.00;;;;;;;22.22;60.80;100379.31;5050257;28;20213;-71
2022/06/05 11:00:49;;;;;;;0.73;0.73;;;;;;;22.25;61.68;100370.16;5050668;28;20572;-72
2022/06/05 11:03:36;;;;;;;1.17;1.13;;;;;;;22.21;60.86;100363.78;5050741;28;20172;-71
2022/06/05 11:06:07;;;;;;;1.77;1.30;;;;;;;22.24;60.82;100373.34;5050818;28;20224;-71
2022/06/05 11:09:02;;;;;;;0.83;0.80;;;;;;;22.23;60.47;100366.97;5050443;28;20629;-71
2022/06/05 11:14:36;;;;;;;1.10;1.10;;;;;;;22.27;60.93;100356.63;5054932;28;20206;-72
2022/06/05 11:17:24;;;;;;;2.33;2.23;;;;;;;22.58;60.49;100362.72;5054636;28;20170;-72
2022/06/05 11:20:04;;;;;;;2.50;1.63;;;;;;;22.47;59.28;100351.53;5054150;28;20520;-72
2022/06/05 11:22:29;;;;;;;0.80;0.43;;;;;;;22.54;60.14;100347.97;5054281;28;20258;-71
2022/06/05 11:25:09;;;;;;;2.83;1.90;;;;;;;22.43;59.46;100349.94;5072288;28;20276;-72
2022/06/05 11:27:59;;;;;;;1.90;1.80;;;;;;;22.64;59.14;100340.81;5053650;28;20528;-72
2022/06/05 11:30:45;;;;;;;0.87;0.87;;;;;;;22.95;59.60;100328.94;5064778;28;20717;-71
2022/06/05 11:33:25;;;;;;;1.37;1.27;;;;;;;22.97;59.76;100331.31;5074152;28;20173;-72
2022/06/05 11:36:13;;;;;;;1.03;0.93;;;;;;;23.27;58.20;100333.69;5074432;28;20276;-73
2022/06/05 11:39:16;;;;;;;3.90;2.60;;;;;;;22.97;57.46;100314.59;5073520;28;20177;-72
2022/06/05 11:41:55;;;;;;;1.53;1.43;;;;;;;23.07;57.12;100303.44;5074095;28;20658;-71
2022/06/05 11:44:38;;;;;;;1.53;1.43;;;;;;;23.40;57.69;100298.63;5073718;28;20268;-71
2022/06/05 11:47:04;;;;;;;1.53;1.43;;;;;;;23.37;55.63;100310.56;5073488;28;20633;-72
2022/06/05 11:49:55;;;;;;;1.17;1.07;;;;;;;23.31;55.83;100299.03;5072192;28;20181;-72
2022/06/05 11:52:48;;;;;;;1.73;1.63;;;;;;;23.13;56.56;100301.84;5073666;28;20626;-71
2022/06/05 11:55:13;;;;;;;1.63;1.53;;;;;;;23.33;56.65;100302.22;5073848;28;20175;-72
2022/06/05 11:58:01;;;;;;;1.00;1.00;;;;;;;23.37;55.49;100300.22;5073431;28;20529;-72
2022/06/05 12:00:42;;;;;;;1.60;1.50;;;;;;;23.33;55.55;100291.06;5073622;28;20229;-72
2022/06/05 12:03:23;;;;;;;1.57;1.47;;;;;;;23.32;56.39;100294.25;5073679;28;20479;-71
2022/06/05 12:05:56;;;;;;;0.73;0.73;;;;;;;23.39;56.52;100291.44;5073841;28;20183;-72